Decoded Metar for FJDG (DIEGO GARCIA ISLAND in DIEGO GARCIA ISLAND) (IATA:N/A) | Meteo·Mobile Aviation Weather
aviador You're here:

FJDG Decoded Metar

DIEGO GARCIA ISLAND in DIEGO GARCIA ISLAND
Report Time2019-09-17 03:55:00
UTC Time2019-09-17 04:11:50
Flight Rules vfr VFR
Wind120° at 05 kt
W.Decomp.*RWY 13: 5.0 kt HW 0.2 kt LCW
Visibility9999 m
Phenomena:N/A
Clouds:Few 017 Hf
Few 032 Hf
Broken 080 Hf
Expected CloudBase > 1,600 ft AGL from Temp-Dew spread
Ceiling8,000 ft
Temp28°C (ISA +13)
Dew Point24°C (79% RH)
Heat Index31.9°C
QNH1012 hPa
Density Alt1,932 ft
Elevation10 ft
Report Wrong Elevation
Raw Report
METAR FJDG 170355Z 12005KT 9999 FEW017 FEW032 BKN080 28/24 A2988 RMK
SLP115 T02750241=

Extra information for FJDG:More info

Metar Taf Metar & Taf Last 4 Metars F.Rules Stats Wind Profile Meteogram Temp Stats Airport Information Weather charts Add Link Nearby VenuesMetar ALERT Operation Metar Decoded Social comments